sensor_id;sensor_type;location;lat;lon;timestamp;pressure;altitude;pressure_sealevel;temperature;humidity
7660;BME280;3872;47.902;8.162;2022-09-09T00:00:16;91762.69;;;9.02;100.00
7660;BME280;3872;47.902;8.162;2022-09-09T00:03:01;91757.50;;;8.97;100.00
7660;BME280;3872;47.902;8.162;2022-09-09T00:05:33;91757.72;;;9.01;100.00
7660;BME280;3872;47.902;8.162;2022-09-09T00:08:04;91754.97;;;8.92;100.00
7660;BME280;3872;47.902;8.162;2022-09-09T00:10:36;91757.44;;;9.02;100.00
7660;BME280;3872;47.902;8.162;2022-09-09T00:13:13;91754.56;;;8.85;100.00
7660;BME280;3872;47.902;8.162;2022-09-09T00:15:46;91755.91;;;8.83;100.00
7660;BME280;3872;47.902;8.162;2022-09-09T00:18:22;91748.88;;;8.78;100.00
7660;BME280;3872;47.902;8.162;2022-09-09T00:20:55;91752.16;;;8.70;100.00
7660;BME280;3872;47.902;8.162;2022-09-09T00:23:25;91750.81;;;8.73;100.00
7660;BME280;3872;47.902;8.162;2022-09-09T00:26:00;91753.34;;;8.78;100.00
7660;BME280;3872;47.902;8.162;2022-09-09T00:28:29;91745.81;;;8.90;100.00
7660;BME280;3872;47.902;8.162;2022-09-09T00:30:59;91750.44;;;8.60;100.00
7660;BME280;3872;47.902;8.162;2022-09-09T00:33:30;91760.59;;;8.67;100.00
7660;BME280;3872;47.902;8.162;2022-09-09T00:35:58;91755.75;;;9.58;100.00
7660;BME280;3872;47.902;8.162;2022-09-09T00:38:28;91758.66;;;10.11;100.00
7660;BME280;3872;47.902;8.162;2022-09-09T00:41:03;91751.47;;;10.30;100.00
7660;BME280;3872;47.902;8.162;2022-09-09T00:43:35;91747.28;;;10.43;100.00
7660;BME280;3872;47.902;8.162;2022-09-09T00:46:20;91751.50;;;10.66;100.00
7660;BME280;3872;47.902;8.162;2022-09-09T00:48:57;91752.28;;;10.67;100.00
7660;BME280;3872;47.902;8.162;2022-09-09T00:51:35;91756.53;;;10.13;100.00
7660;BME280;3872;47.902;8.162;2022-09-09T00:54:25;91762.97;;;9.79;100.00
7660;BME280;3872;47.902;8.162;2022-09-09T00:57:00;91761.41;;;9.78;100.00
7660;BME280;3872;47.902;8.162;2022-09-09T00:59:37;91768.63;;;10.14;100.00
7660;BME280;3872;47.902;8.162;2022-09-09T01:02:16;91763.72;;;10.48;100.00
7660;BME280;3872;47.902;8.162;2022-09-09T01:04:47;91755.56;;;10.86;100.00
7660;BME280;3872;47.902;8.162;2022-09-09T01:07:17;91756.59;;;10.98;100.00
7660;BME280;3872;47.902;8.162;2022-09-09T01:09:51;91747.63;;;11.22;100.00
7660;BME280;3872;47.902;8.162;2022-09-09T01:12:28;91747.72;;;11.17;100.00
7660;BME280;3872;47.902;8.162;2022-09-09T01:15:08;91738.88;;;11.35;100.00
7660;BME280;3872;47.902;8.162;2022-09-09T01:17:50;91734.09;;;11.46;100.00
7660;BME280;3872;47.902;8.162;2022-09-09T01:20:23;91723.53;;;11.68;100.00
7660;BME280;3872;47.902;8.162;2022-09-09T01:23:09;91725.66;;;11.57;100.00
7660;BME280;3872;47.902;8.162;2022-09-09T01:26:09;91723.31;;;11.56;100.00
7660;BME280;3872;47.902;8.162;2022-09-09T01:28:40;91730.34;;;11.38;100.00
7660;BME280;3872;47.902;8.162;2022-09-09T01:31:14;91735.63;;;11.38;100.00
7660;BME280;3872;47.902;8.162;2022-09-09T01:33:44;91726.91;;;11.29;100.00
7660;BME280;3872;47.902;8.162;2022-09-09T01:36:15;91728.22;;;11.18;100.00
7660;BME280;3872;47.902;8.162;2022-09-09T01:38:48;91726.72;;;11.25;100.00
7660;BME280;3872;47.902;8.162;2022-09-09T01:41:17;91727.44;;;11.17;100.00
7660;BME280;3872;47.902;8.162;2022-09-09T01:44:04;91734.09;;;11.46;100.00
7660;BME280;3872;47.902;8.162;2022-09-09T01:46:33;91733.25;;;11.59;100.00
7660;BME280;3872;47.902;8.162;2022-09-09T01:49:05;91736.94;;;11.80;100.00
7660;BME280;3872;47.902;8.162;2022-09-09T01:51:33;91736.63;;;11.82;100.00
7660;BME280;3872;47.902;8.162;2022-09-09T01:54:04;91733.00;;;12.00;100.00
7660;BME280;3872;47.902;8.162;2022-09-09T01:56:41;91731.56;;;11.85;100.00
7660;BME280;3872;47.902;8.162;2022-09-09T01:59:32;91734.94;;;11.77;100.00
7660;BME280;3872;47.902;8.162;2022-09-09T02:02:10;91729.56;;;11.91;100.00
7660;BME280;3872;47.902;8.162;2022-09-09T02:04:44;91724.84;;;12.27;100.00
7660;BME280;3872;47.902;8.162;2022-09-09T02:07:28;91732.91;;;12.22;100.00
7660;BME280;3872;47.902;8.162;2022-09-09T02:10:02;91725.00;;;12.31;100.00
7660;BME280;3872;47.902;8.162;2022-09-09T02:12:35;91732.16;;;12.30;100.00
7660;BME280;3872;47.902;8.162;2022-09-09T02:15:13;91735.97;;;12.15;100.00
7660;BME280;3872;47.902;8.162;2022-09-09T02:17:49;91742.75;;;11.37;100.00
7660;BME280;3872;47.902;8.162;2022-09-09T02:20:19;91743.72;;;11.42;100.00
7660;BME280;3872;47.902;8.162;2022-09-09T02:22:51;91734.53;;;11.39;100.00
7660;BME280;3872;47.902;8.162;2022-09-09T02:25:23;91735.94;;;11.36;100.00
7660;BME280;3872;47.902;8.162;2022-09-09T02:27:56;91736.22;;;11.35;100.00
7660;BME280;3872;47.902;8.162;2022-09-09T02:30:24;91730.06;;;11.39;100.00
7660;BME280;3872;47.902;8.162;2022-09-09T02:32:58;91735.72;;;11.55;100.00
7660;BME280;3872;47.902;8.162;2022-09-09T02:35:43;91733.88;;;11.56;100.00
7660;BME280;3872;47.902;8.162;2022-09-09T02:38:14;91732.50;;;11.67;100.00
7660;BME280;3872;47.902;8.162;2022-09-09T02:40:52;91724.75;;;11.62;100.00
7660;BME280;3872;47.902;8.162;2022-09-09T02:43:20;91719.22;;;11.72;100.00
7660;BME280;3872;47.902;8.162;2022-09-09T02:45:52;91723.97;;;11.61;100.00
7660;BME280;3872;47.902;8.162;2022-09-09T02:48:29;91729.25;;;11.39;100.00
7660;BME280;3872;47.902;8.162;2022-09-09T02:51:01;91733.59;;;11.66;100.00
7660;BME280;3872;47.902;8.162;2022-09-09T02:53:39;91730.94;;;11.66;100.00
7660;BME280;3872;47.902;8.162;2022-09-09T02:56:15;91727.31;;;11.75;100.00
7660;BME280;3872;47.902;8.162;2022-09-09T02:58:46;91727.94;;;11.81;100.00
7660;BME280;3872;47.902;8.162;2022-09-09T03:01:14;91736.28;;;12.05;100.00
7660;BME280;3872;47.902;8.162;2022-09-09T03:03:41;91728.06;;;12.15;100.00
7660;BME280;3872;47.902;8.162;2022-09-09T03:06:12;91734.59;;;12.18;100.00
7660;BME280;3872;47.902;8.162;2022-09-09T03:08:39;91734.94;;;12.25;100.00
7660;BME280;3872;47.902;8.162;2022-09-09T03:11:12;91735.34;;;12.10;100.00
7660;BME280;3872;47.902;8.162;2022-09-09T03:13:41;91736.16;;;12.19;100.00
7660;BME280;3872;47.902;8.162;2022-09-09T03:16:10;91728.94;;;12.42;100.00
7660;BME280;3872;47.902;8.162;2022-09-09T03:18:42;91723.66;;;12.42;100.00
7660;BME280;3872;47.902;8.162;2022-09-09T03:21:11;91715.41;;;12.43;100.00
7660;BME280;3872;47.902;8.162;2022-09-09T03:23:39;91717.13;;;12.48;100.00
7660;BME280;3872;47.902;8.162;2022-09-09T03:26:06;91707.50;;;12.52;100.00
7660;BME280;3872;47.902;8.162;2022-09-09T03:28:39;91712.31;;;12.41;100.00
7660;BME280;3872;47.902;8.162;2022-09-09T03:31:06;91711.25;;;12.60;100.00
7660;BME280;3872;47.902;8.162;2022-09-09T03:33:40;91701.63;;;12.64;100.00
7660;BME280;3872;47.902;8.162;2022-09-09T03:36:10;91703.31;;;12.60;100.00
7660;BME280;3872;47.902;8.162;2022-09-09T03:38:37;91703.03;;;12.70;100.00
7660;BME280;3872;47.902;8.162;2022-09-09T03:41:04;91708.16;;;12.83;100.00
7660;BME280;3872;47.902;8.162;2022-09-09T03:43:33;91706.28;;;12.75;100.00
7660;BME280;3872;47.902;8.162;2022-09-09T03:46:00;91709.84;;;12.79;100.00
7660;BME280;3872;47.902;8.162;2022-09-09T03:48:28;91713.44;;;12.83;100.00
7660;BME280;3872;47.902;8.162;2022-09-09T03:50:56;91710.00;;;12.74;100.00
7660;BME280;3872;47.902;8.162;2022-09-09T03:53:26;91715.47;;;12.78;100.00
7660;BME280;3872;47.902;8.162;2022-09-09T03:55:54;91719.63;;;12.79;100.00
7660;BME280;3872;47.902;8.162;2022-09-09T03:58:24;91716.06;;;12.75;100.00
7660;BME280;3872;47.902;8.162;2022-09-09T04:00:54;91705.22;;;12.85;100.00
7660;BME280;3872;47.902;8.162;2022-09-09T04:03:21;91704.88;;;12.86;100.00
7660;BME280;3872;47.902;8.162;2022-09-09T04:05:50;91708.78;;;12.98;100.00
7660;BME280;3872;47.902;8.162;2022-09-09T04:08:18;91707.53;;;13.04;100.00
7660;BME280;3872;47.902;8.162;2022-09-09T04:10:45;91703.06;;;13.13;100.00
7660;BME280;3872;47.902;8.162;2022-09-09T04:13:13;91696.63;;;13.31;100.00
7660;BME280;3872;47.902;8.162;2022-09-09T04:15:43;91695.41;;;13.28;100.00
7660;BME280;3872;47.902;8.162;2022-09-09T04:18:10;91703.78;;;13.30;100.00
7660;BME280;3872;47.902;8.162;2022-09-09T04:20:37;91701.44;;;13.29;100.00
7660;BME280;3872;47.902;8.162;2022-09-09T04:23:04;91697.09;;;13.33;100.00
7660;BME280;3872;47.902;8.162;2022-09-09T04:25:32;91697.75;;;12.95;100.00
7660;BME280;3872;47.902;8.162;2022-09-09T04:27:59;91701.31;;;12.82;100.00
7660;BME280;3872;47.902;8.162;2022-09-09T04:30:26;91703.19;;;12.99;100.00
7660;BME280;3872;47.902;8.162;2022-09-09T04:32:53;91703.31;;;13.03;100.00
7660;BME280;3872;47.902;8.162;2022-09-09T04:35:20;91712.50;;;12.79;100.00
7660;BME280;3872;47.902;8.162;2022-09-09T04:37:46;91724.91;;;12.87;100.00
7660;BME280;3872;47.902;8.162;2022-09-09T04:40:13;91713.91;;;13.03;100.00
7660;BME280;3872;47.902;8.162;2022-09-09T04:42:42;91720.59;;;13.17;100.00
7660;BME280;3872;47.902;8.162;2022-09-09T04:45:11;91721.50;;;13.30;100.00
7660;BME280;3872;47.902;8.162;2022-09-09T04:47:39;91718.41;;;13.28;100.00
7660;BME280;3872;47.902;8.162;2022-09-09T04:50:07;91719.03;;;13.33;100.00
7660;BME280;3872;47.902;8.162;2022-09-09T04:52:34;91719.03;;;13.25;100.00
7660;BME280;3872;47.902;8.162;2022-09-09T04:55:01;91718.25;;;13.33;100.00
7660;BME280;3872;47.902;8.162;2022-09-09T04:57:27;91712.97;;;13.16;100.00
7660;BME280;3872;47.902;8.162;2022-09-09T04:59:58;91718.09;;;13.29;100.00
7660;BME280;3872;47.902;8.162;2022-09-09T05:02:26;91719.19;;;13.28;100.00
7660;BME280;3872;47.902;8.162;2022-09-09T05:04:53;91725.28;;;13.20;100.00
7660;BME280;3872;47.902;8.162;2022-09-09T05:07:20;91717.47;;;13.24;100.00
7660;BME280;3872;47.902;8.162;2022-09-09T05:09:47;91720.56;;;13.09;100.00
7660;BME280;3872;47.902;8.162;2022-09-09T05:12:15;91718.44;;;13.19;100.00
7660;BME280;3872;47.902;8.162;2022-09-09T05:14:48;91718.38;;;13.37;100.00
7660;BME280;3872;47.902;8.162;2022-09-09T05:17:17;91720.44;;;13.22;100.00
7660;BME280;3872;47.902;8.162;2022-09-09T05:19:44;91717.16;;;13.34;100.00
7660;BME280;3872;47.902;8.162;2022-09-09T05:22:18;91722.75;;;13.24;100.00
7660;BME280;3872;47.902;8.162;2022-09-09T05:24:46;91719.97;;;13.12;100.00
7660;BME280;3872;47.902;8.162;2022-09-09T05:27:15;91721.38;;;13.18;100.00
7660;BME280;3872;47.902;8.162;2022-09-09T05:29:41;91722.28;;;13.22;100.00
7660;BME280;3872;47.902;8.162;2022-09-09T05:32:10;91725.88;;;13.26;100.00
7660;BME280;3872;47.902;8.162;2022-09-09T05:34:38;91726.19;;;13.33;100.00
7660;BME280;3872;47.902;8.162;2022-09-09T05:37:05;91734.75;;;13.21;100.00
7660;BME280;3872;47.902;8.162;2022-09-09T05:39:32;91722.94;;;13.27;100.00
7660;BME280;3872;47.902;8.162;2022-09-09T05:41:59;91715.84;;;13.57;100.00
7660;BME280;3872;47.902;8.162;2022-09-09T05:44:26;91713.28;;;13.31;100.00
7660;BME280;3872;47.902;8.162;2022-09-09T05:46:54;91710.75;;;13.52;100.00
7660;BME280;3872;47.902;8.162;2022-09-09T05:49:21;91717.34;;;13.20;100.00
7660;BME280;3872;47.902;8.162;2022-09-09T05:51:49;91725.53;;;13.36;100.00
7660;BME280;3872;47.902;8.162;2022-09-09T05:54:17;91716.41;;;13.25;100.00
7660;BME280;3872;47.902;8.162;2022-09-09T05:56:48;91720.84;;;13.50;100.00
7660;BME280;3872;47.902;8.162;2022-09-09T05:59:16;91720.81;;;13.67;100.00
7660;BME280;3872;47.902;8.162;2022-09-09T06:01:43;91723.47;;;13.59;100.00
7660;BME280;3872;47.902;8.162;2022-09-09T06:04:18;91716.28;;;13.77;100.00
7660;BME280;3872;47.902;8.162;2022-09-09T06:06:51;91720.78;;;13.85;100.00
7660;BME280;3872;47.902;8.162;2022-09-09T06:09:20;91724.13;;;13.94;100.00
7660;BME280;3872;47.902;8.162;2022-09-09T06:11:47;91728.72;;;13.76;100.00
7660;BME280;3872;47.902;8.162;2022-09-09T06:14:14;91730.69;;;13.88;100.00
7660;BME280;3872;47.902;8.162;2022-09-09T06:16:45;91729.91;;;13.87;100.00
7660;BME280;3872;47.902;8.162;2022-09-09T06:19:17;91737.47;;;13.59;100.00
7660;BME280;3872;47.902;8.162;2022-09-09T06:21:46;91741.56;;;13.95;100.00
7660;BME280;3872;47.902;8.162;2022-09-09T06:24:14;91733.00;;;13.98;100.00
7660;BME280;3872;47.902;8.162;2022-09-09T06:26:43;91730.06;;;13.99;100.00
7660;BME280;3872;47.902;8.162;2022-09-09T06:29:13;91735.72;;;13.72;100.00
7660;BME280;3872;47.902;8.162;2022-09-09T06:31:41;91730.66;;;14.05;100.00
7660;BME280;3872;47.902;8.162;2022-09-09T06:34:14;91745.38;;;14.15;100.00
7660;BME280;3872;47.902;8.162;2022-09-09T06:36:45;91738.78;;;14.29;100.00
7660;BME280;3872;47.902;8.162;2022-09-09T06:39:12;91737.38;;;13.94;100.00
7660;BME280;3872;47.902;8.162;2022-09-09T06:41:42;91733.75;;;13.60;100.00
7660;BME280;3872;47.902;8.162;2022-09-09T06:44:23;91732.94;;;13.68;100.00
7660;BME280;3872;47.902;8.162;2022-09-09T06:46:52;91733.94;;;13.38;100.00
7660;BME280;3872;47.902;8.162;2022-09-09T06:49:18;91742.41;;;13.78;100.00
7660;BME280;3872;47.902;8.162;2022-09-09T06:51:45;91752.47;;;13.93;100.00
7660;BME280;3872;47.902;8.162;2022-09-09T06:54:12;91757.31;;;13.83;100.00
7660;BME280;3872;47.902;8.162;2022-09-09T06:56:44;91756.81;;;13.98;100.00
7660;BME280;3872;47.902;8.162;2022-09-09T06:59:18;91764.25;;;14.04;100.00
7660;BME280;3872;47.902;8.162;2022-09-09T07:01:46;91771.53;;;13.61;100.00
7660;BME280;3872;47.902;8.162;2022-09-09T07:04:14;91765.66;;;13.38;100.00
7660;BME280;3872;47.902;8.162;2022-09-09T07:06:44;91767.00;;;13.70;100.00
7660;BME280;3872;47.902;8.162;2022-09-09T07:09:18;91758.91;;;13.66;100.00
7660;BME280;3872;47.902;8.162;2022-09-09T07:11:50;91770.31;;;13.50;100.00
7660;BME280;3872;47.902;8.162;2022-09-09T07:14:18;91771.03;;;13.76;100.00
7660;BME280;3872;47.902;8.162;2022-09-09T07:16:51;91774.97;;;14.08;100.00
7660;BME280;3872;47.902;8.162;2022-09-09T07:19:18;91769.47;;;14.22;100.00
7660;BME280;3872;47.902;8.162;2022-09-09T07:21:49;91762.03;;;14.15;100.00
7660;BME280;3872;47.902;8.162;2022-09-09T07:24:18;91759.78;;;14.34;100.00
7660;BME280;3872;47.902;8.162;2022-09-09T07:26:45;91768.94;;;14.45;100.00
7660;BME280;3872;47.902;8.162;2022-09-09T07:29:13;91756.59;;;14.49;100.00
7660;BME280;3872;47.902;8.162;2022-09-09T07:31:41;91773.22;;;14.88;100.00
7660;BME280;3872;47.902;8.162;2022-09-09T07:34:12;91767.47;;;15.07;100.00
7660;BME280;3872;47.902;8.162;2022-09-09T07:36:40;91766.63;;;15.15;100.00
7660;BME280;3872;47.902;8.162;2022-09-09T07:39:10;91769.34;;;15.27;100.00
7660;BME280;3872;47.902;8.162;2022-09-09T07:41:42;91779.50;;;14.83;100.00
7660;BME280;3872;47.902;8.162;2022-09-09T07:44:11;91786.50;;;14.50;100.00
7660;BME280;3872;47.902;8.162;2022-09-09T07:46:41;91788.94;;;14.64;100.00
7660;BME280;3872;47.902;8.162;2022-09-09T07:49:10;91784.38;;;14.35;100.00
7660;BME280;3872;47.902;8.162;2022-09-09T07:51:38;91787.00;;;14.73;100.00
7660;BME280;3872;47.902;8.162;2022-09-09T07:54:07;91779.75;;;14.23;100.00
7660;BME280;3872;47.902;8.162;2022-09-09T07:56:37;91784.00;;;14.54;100.00
7660;BME280;3872;47.902;8.162;2022-09-09T07:59:05;91788.75;;;14.69;100.00
7660;BME280;3872;47.902;8.162;2022-09-09T08:01:35;91786.09;;;14.31;100.00
7660;BME280;3872;47.902;8.162;2022-09-09T08:04:07;91791.09;;;14.70;100.00
7660;BME280;3872;47.902;8.162;2022-09-09T08:06:37;91797.59;;;14.73;100.00
7660;BME280;3872;47.902;8.162;2022-09-09T08:09:04;91799.22;;;14.27;100.00
7660;BME280;3872;47.902;8.162;2022-09-09T08:11:32;91799.50;;;14.34;100.00
7660;BME280;3872;47.902;8.162;2022-09-09T08:14:00;91797.06;;;14.59;100.00
7660;BME280;3872;47.902;8.162;2022-09-09T08:16:29;91797.59;;;15.02;100.00
7660;BME280;3872;47.902;8.162;2022-09-09T08:18:58;91812.59;;;14.98;100.00
7660;BME280;3872;47.902;8.162;2022-09-09T08:21:28;91801.63;;;14.79;100.00
7660;BME280;3872;47.902;8.162;2022-09-09T08:23:58;91803.41;;;14.66;100.00
7660;BME280;3872;47.902;8.162;2022-09-09T08:26:26;91801.34;;;15.01;100.00
7660;BME280;3872;47.902;8.162;2022-09-09T08:28:55;91810.81;;;14.81;100.00
7660;BME280;3872;47.902;8.162;2022-09-09T08:31:25;91820.34;;;14.74;100.00
7660;BME280;3872;47.902;8.162;2022-09-09T08:33:53;91823.63;;;14.41;100.00
7660;BME280;3872;47.902;8.162;2022-09-09T08:36:21;91825.25;;;14.08;100.00
7660;BME280;3872;47.902;8.162;2022-09-09T08:38:51;91818.66;;;13.76;100.00
7660;BME280;3872;47.902;8.162;2022-09-09T08:41:36;91825.38;;;13.56;100.00
7660;BME280;3872;47.902;8.162;2022-09-09T08:44:08;91827.69;;;13.49;100.00
7660;BME280;3872;47.902;8.162;2022-09-09T08:46:44;91819.19;;;14.07;100.00
7660;BME280;3872;47.902;8.162;2022-09-09T08:49:25;91819.97;;;14.63;100.00
7660;BME280;3872;47.902;8.162;2022-09-09T08:52:02;91813.31;;;14.78;100.00
7660;BME280;3872;47.902;8.162;2022-09-09T08:54:34;91812.06;;;14.84;100.00
7660;BME280;3872;47.902;8.162;2022-09-09T08:57:01;91813.94;;;15.87;100.00
7660;BME280;3872;47.902;8.162;2022-09-09T08:59:28;91812.19;;;15.91;100.00
7660;BME280;3872;47.902;8.162;2022-09-09T09:02:00;91811.63;;;15.23;100.00
7660;BME280;3872;47.902;8.162;2022-09-09T09:04:47;91814.25;;;15.53;100.00
7660;BME280;3872;47.902;8.162;2022-09-09T09:07:23;91814.91;;;15.83;100.00
7660;BME280;3872;47.902;8.162;2022-09-09T09:09:58;91828.44;;;15.90;100.00
7660;BME280;3872;47.902;8.162;2022-09-09T09:12:38;91821.88;;;15.34;100.00
7660;BME280;3872;47.902;8.162;2022-09-09T09:15:11;91828.00;;;15.25;100.00
7660;BME280;3872;47.902;8.162;2022-09-09T09:17:41;91815.63;;;15.09;100.00
7660;BME280;3872;47.902;8.162;2022-09-09T09:20:12;91819.97;;;15.76;100.00
7660;BME280;3872;47.902;8.162;2022-09-09T09:22:47;91813.44;;;15.32;100.00
7660;BME280;3872;47.902;8.162;2022-09-09T09:25:21;91816.63;;;15.46;100.00
7660;BME280;3872;47.902;8.162;2022-09-09T09:27:58;91817.34;;;15.76;100.00
7660;BME280;3872;47.902;8.162;2022-09-09T09:30:35;91810.34;;;15.71;100.00
7660;BME280;3872;47.902;8.162;2022-09-09T09:33:11;91808.03;;;15.70;100.00
7660;BME280;3872;47.902;8.162;2022-09-09T09:35:41;91818.03;;;15.64;100.00
7660;BME280;3872;47.902;8.162;2022-09-09T09:38:16;91794.03;;;16.26;100.00
7660;BME280;3872;47.902;8.162;2022-09-09T09:40:53;91804.25;;;16.03;100.00
7660;BME280;3872;47.902;8.162;2022-09-09T09:43:26;91798.19;;;16.15;100.00
7660;BME280;3872;47.902;8.162;2022-09-09T09:45:53;91806.72;;;16.21;100.00
7660;BME280;3872;47.902;8.162;2022-09-09T09:48:20;91803.47;;;16.48;100.00
7660;BME280;3872;47.902;8.162;2022-09-09T09:50:51;91801.31;;;16.17;100.00
7660;BME280;3872;47.902;8.162;2022-09-09T09:53:24;91805.44;;;16.39;100.00
7660;BME280;3872;47.902;8.162;2022-09-09T09:55:59;91793.03;;;17.16;100.00
7660;BME280;3872;47.902;8.162;2022-09-09T09:58:30;91797.22;;;17.29;100.00
7660;BME280;3872;47.902;8.162;2022-09-09T10:01:00;91802.34;;;17.10;100.00
7660;BME280;3872;47.902;8.162;2022-09-09T10:03:30;91787.19;;;18.06;100.00
7660;BME280;3872;47.902;8.162;2022-09-09T10:05:58;91795.91;;;17.23;100.00
7660;BME280;3872;47.902;8.162;2022-09-09T10:08:26;91802.91;;;16.55;100.00
7660;BME280;3872;47.902;8.162;2022-09-09T10:11:04;91805.03;;;16.86;100.00
7660;BME280;3872;47.902;8.162;2022-09-09T10:13:39;91810.56;;;16.93;100.00
7660;BME280;3872;47.902;8.162;2022-09-09T10:16:22;91801.13;;;17.07;100.00
7660;BME280;3872;47.902;8.162;2022-09-09T10:18:58;91792.44;;;17.35;100.00
7660;BME280;3872;47.902;8.162;2022-09-09T10:21:39;91801.25;;;17.63;100.00
7660;BME280;3872;47.902;8.162;2022-09-09T10:24:31;91797.59;;;17.68;100.00
7660;BME280;3872;47.902;8.162;2022-09-09T10:27:06;91786.81;;;17.92;100.00
7660;BME280;3872;47.902;8.162;2022-09-09T10:29:51;91798.88;;;17.74;100.00
7660;BME280;3872;47.902;8.162;2022-09-09T10:32:37;91796.41;;;16.89;100.00
7660;BME280;3872;47.902;8.162;2022-09-09T10:35:10;91788.97;;;16.82;100.00
7660;BME280;3872;47.902;8.162;2022-09-09T10:37:48;91788.09;;;16.78;100.00
7660;BME280;3872;47.902;8.162;2022-09-09T10:40:29;91790.94;;;17.09;100.00
7660;BME280;3872;47.902;8.162;2022-09-09T10:49:49;91776.00;;;18.60;100.00
7660;BME280;3872;47.902;8.162;2022-09-09T10:52:24;91777.66;;;19.15;100.00
7660;BME280;3872;47.902;8.162;2022-09-09T10:54:57;91775.88;;;18.09;100.00
7660;BME280;3872;47.902;8.162;2022-09-09T10:57:29;91764.63;;;18.94;100.00
7660;BME280;3872;47.902;8.162;2022-09-09T11:00:02;91768.56;;;18.22;100.00
7660;BME280;3872;47.902;8.162;2022-09-09T11:02:32;91763.97;;;17.91;100.00
7660;BME280;3872;47.902;8.162;2022-09-09T11:05:04;91762.84;;;17.92;100.00
7660;BME280;3872;47.902;8.162;2022-09-09T11:07:40;91766.41;;;18.12;100.00
7660;BME280;3872;47.902;8.162;2022-09-09T11:10:18;91759.09;;;19.03;100.00
7660;BME280;3872;47.902;8.162;2022-09-09T11:12:50;91745.03;;;18.55;100.00
7660;BME280;3872;47.902;8.162;2022-09-09T11:15:22;91755.09;;;18.62;100.00
7660;BME280;3872;47.902;8.162;2022-09-09T11:17:54;91761.03;;;19.41;100.00
7660;BME280;3872;47.902;8.162;2022-09-09T11:20:25;91762.63;;;19.61;100.00
7660;BME280;3872;47.902;8.162;2022-09-09T11:22:55;91767.47;;;19.21;100.00
7660;BME280;3872;47.902;8.162;2022-09-09T11:25:29;91773.47;;;18.35;100.00
7660;BME280;3872;47.902;8.162;2022-09-09T11:28:26;91784.97;;;18.08;100.00
7660;BME280;3872;47.902;8.162;2022-09-09T11:31:07;91793.06;;;17.84;100.00
7660;BME280;3872;47.902;8.162;2022-09-09T11:34:02;91810.97;;;17.71;100.00
7660;BME280;3872;47.902;8.162;2022-09-09T11:40:14;91810.72;;;15.82;100.00
7660;BME280;3872;47.902;8.162;2022-09-09T11:42:42;91813.56;;;16.10;100.00
7660;BME280;3872;47.902;8.162;2022-09-09T11:45:11;91798.84;;;16.69;100.00
7660;BME280;3872;47.902;8.162;2022-09-09T11:47:52;91792.50;;;17.50;100.00
7660;BME280;3872;47.902;8.162;2022-09-09T11:50:31;91797.38;;;18.48;100.00
7660;BME280;3872;47.902;8.162;2022-09-09T11:53:19;91788.53;;;18.91;100.00
7660;BME280;3872;47.902;8.162;2022-09-09T11:55:47;91792.44;;;19.12;100.00
7660;BME280;3872;47.902;8.162;2022-09-09T11:58:16;91788.78;;;19.36;100.00
7660;BME280;3872;47.902;8.162;2022-09-09T12:00:44;91791.34;;;19.48;100.00
7660;BME280;3872;47.902;8.162;2022-09-09T12:03:38;91779.78;;;20.21;100.00
7660;BME280;3872;47.902;8.162;2022-09-09T12:06:13;91779.63;;;19.91;100.00
7660;BME280;3872;47.902;8.162;2022-09-09T12:08:45;91787.00;;;20.17;100.00
7660;BME280;3872;47.902;8.162;2022-09-09T12:11:23;91788.28;;;19.31;100.00
7660;BME280;3872;47.902;8.162;2022-09-09T12:13:53;91787.88;;;18.62;100.00
7660;BME280;3872;47.902;8.162;2022-09-09T12:16:29;91794.72;;;17.88;100.00
7660;BME280;3872;47.902;8.162;2022-09-09T12:19:04;91794.25;;;17.18;100.00
7660;BME280;3872;47.902;8.162;2022-09-09T12:21:37;91802.75;;;17.36;100.00
7660;BME280;3872;47.902;8.162;2022-09-09T12:24:09;91796.47;;;17.56;100.00
7660;BME280;3872;47.902;8.162;2022-09-09T12:26:39;91792.53;;;17.38;100.00
7660;BME280;3872;47.902;8.162;2022-09-09T12:29:16;91791.03;;;17.13;100.00
7660;BME280;3872;47.902;8.162;2022-09-09T12:31:51;91803.84;;;17.47;100.00
7660;BME280;3872;47.902;8.162;2022-09-09T12:34:30;91798.28;;;16.76;100.00
7660;BME280;3872;47.902;8.162;2022-09-09T12:37:03;91799.19;;;16.68;100.00
7660;BME280;3872;47.902;8.162;2022-09-09T12:39:37;91799.72;;;16.61;100.00
7660;BME280;3872;47.902;8.162;2022-09-09T12:42:16;91788.66;;;17.36;100.00
7660;BME280;3872;47.902;8.162;2022-09-09T12:44:51;91797.19;;;17.41;100.00
7660;BME280;3872;47.902;8.162;2022-09-09T12:47:19;91789.78;;;17.75;100.00
7660;BME280;3872;47.902;8.162;2022-09-09T12:49:48;91783.06;;;17.65;100.00
7660;BME280;3872;47.902;8.162;2022-09-09T12:52:21;91777.97;;;18.31;100.00
7660;BME280;3872;47.902;8.162;2022-09-09T12:54:50;91766.22;;;19.88;100.00
7660;BME280;3872;47.902;8.162;2022-09-09T12:57:19;91766.50;;;18.15;100.00
7660;BME280;3872;47.902;8.162;2022-09-09T12:59:48;91758.44;;;19.60;100.00
7660;BME280;3872;47.902;8.162;2022-09-09T13:02:20;91752.28;;;20.89;89.30
7660;BME280;3872;47.902;8.162;2022-09-09T13:04:47;91749.28;;;20.22;78.33
7660;BME280;3872;47.902;8.162;2022-09-09T13:07:16;91753.50;;;20.69;75.76
7660;BME280;3872;47.902;8.162;2022-09-09T13:09:43;91747.56;;;19.34;79.06
7660;BME280;3872;47.902;8.162;2022-09-09T13:12:14;91752.44;;;18.77;79.04
7660;BME280;3872;47.902;8.162;2022-09-09T13:14:43;91754.06;;;18.51;87.81
7660;BME280;3872;47.902;8.162;2022-09-09T13:17:21;91755.34;;;19.23;80.45
7660;BME280;3872;47.902;8.162;2022-09-09T13:19:49;91760.50;;;19.32;83.47
7660;BME280;3872;47.902;8.162;2022-09-09T13:22:21;91772.53;;;18.91;88.70
7660;BME280;3872;47.902;8.162;2022-09-09T13:24:58;91763.50;;;18.95;84.42
7660;BME280;3872;47.902;8.162;2022-09-09T13:27:30;91759.34;;;19.33;80.81
7660;BME280;3872;47.902;8.162;2022-09-09T13:29:58;91760.25;;;18.70;84.93
7660;BME280;3872;47.902;8.162;2022-09-09T13:32:26;91750.28;;;18.36;83.99
7660;BME280;3872;47.902;8.162;2022-09-09T13:34:55;91745.66;;;18.17;84.27
7660;BME280;3872;47.902;8.162;2022-09-09T13:37:26;91744.78;;;17.70;86.91
7660;BME280;3872;47.902;8.162;2022-09-09T13:39:53;91763.16;;;17.47;87.77
7660;BME280;3872;47.902;8.162;2022-09-09T13:42:25;91776.22;;;17.52;88.64
7660;BME280;3872;47.902;8.162;2022-09-09T13:44:55;91796.69;;;16.51;100.00
7660;BME280;3872;47.902;8.162;2022-09-09T13:47:28;91811.28;;;16.44;100.00